createdAt,value
2024-03-12T00:01:42.494Z,8.97
2024-03-12T00:04:09.967Z,8.98
2024-03-12T00:06:38.043Z,8.97
2024-03-12T00:09:08.026Z,8.99
2024-03-12T00:11:38.401Z,9.00
2024-03-12T00:14:05.534Z,9.00
2024-03-12T00:16:35.010Z,8.98
2024-03-12T00:19:03.648Z,8.96
2024-03-12T00:21:31.949Z,8.93
2024-03-12T00:24:00.310Z,8.89
2024-03-12T00:26:29.669Z,8.86
2024-03-12T00:28:56.863Z,8.82
2024-03-12T00:31:24.070Z,8.82
2024-03-12T00:33:51.219Z,8.82
2024-03-12T00:36:18.472Z,8.79
2024-03-12T00:38:45.415Z,8.77
2024-03-12T00:41:12.370Z,8.72
2024-03-12T00:43:41.701Z,8.68
2024-03-12T00:46:13.582Z,8.63
2024-03-12T00:48:40.610Z,8.56
2024-03-12T00:51:11.171Z,8.53
2024-03-12T00:53:37.914Z,8.48
2024-03-12T00:56:05.030Z,8.44
2024-03-12T00:58:34.651Z,8.40
2024-03-12T01:01:02.114Z,8.37
2024-03-12T01:03:30.733Z,8.36
2024-03-12T01:05:57.813Z,8.33
2024-03-12T01:08:25.192Z,8.30
2024-03-12T01:10:54.106Z,8.28
2024-03-12T01:13:21.823Z,8.26
2024-03-12T01:15:49.627Z,8.25
2024-03-12T01:18:16.774Z,8.24
2024-03-12T01:20:46.605Z,8.22
2024-03-12T01:23:14.978Z,8.17
2024-03-12T01:25:42.845Z,8.14
2024-03-12T01:28:12.081Z,8.12
2024-03-12T01:30:39.346Z,8.11
2024-03-12T01:33:07.524Z,8.10
2024-03-12T01:35:40.966Z,8.08
2024-03-12T01:38:11.914Z,8.05
2024-03-12T01:40:40.480Z,8.02
2024-03-12T01:43:08.597Z,8.01
2024-03-12T01:45:37.452Z,7.99
2024-03-12T01:48:09.655Z,7.99
2024-03-12T01:50:38.480Z,7.97
2024-03-12T01:53:07.650Z,7.96
2024-03-12T01:55:39.625Z,7.96
2024-03-12T01:58:08.029Z,7.98
2024-03-12T02:00:35.417Z,7.98
2024-03-12T02:03:02.540Z,7.97
2024-03-12T02:05:29.623Z,7.99
2024-03-12T02:07:56.843Z,8.01
2024-03-12T02:10:26.490Z,8.03
2024-03-12T02:12:53.721Z,8.04
2024-03-12T02:15:22.405Z,8.02
2024-03-12T02:17:54.288Z,7.98
2024-03-12T02:20:23.680Z,7.93
2024-03-12T02:22:55.806Z,7.90
2024-03-12T02:25:24.095Z,7.87
2024-03-12T02:27:52.287Z,7.84
2024-03-12T02:34:26.093Z,7.77
2024-03-12T02:36:53.439Z,7.77
2024-03-12T02:39:20.395Z,7.77
2024-03-12T02:41:47.315Z,7.79
2024-03-12T02:44:14.182Z,7.79
2024-03-12T02:46:43.003Z,7.76
2024-03-12T02:49:10.833Z,7.73
2024-03-12T02:51:37.976Z,7.68
2024-03-12T02:54:06.432Z,7.65
2024-03-12T02:56:34.610Z,7.64
2024-03-12T02:59:01.471Z,7.64
2024-03-12T03:01:29.818Z,7.64
2024-03-12T03:03:58.902Z,7.63
2024-03-12T03:06:25.927Z,7.60
2024-03-12T03:08:52.738Z,7.57
2024-03-12T03:11:19.703Z,7.55
2024-03-12T03:13:46.613Z,7.52
2024-03-12T03:16:13.469Z,7.50
2024-03-12T03:18:40.506Z,7.51
2024-03-12T03:21:10.376Z,7.52
2024-03-12T03:23:42.106Z,7.52
2024-03-12T03:26:11.697Z,7.53
2024-03-12T03:28:39.284Z,7.55
2024-03-12T03:31:06.348Z,7.56
2024-03-12T03:33:33.328Z,7.55
2024-03-12T03:36:00.275Z,7.57
2024-03-12T03:38:29.234Z,7.56
2024-03-12T03:40:57.840Z,7.55
2024-03-12T03:43:24.705Z,7.56
2024-03-12T03:45:51.641Z,7.53
2024-03-12T03:48:18.514Z,7.51
2024-03-12T03:50:46.938Z,7.49
2024-03-12T03:53:15.192Z,7.46
2024-03-12T03:55:42.394Z,7.48
2024-03-12T03:58:11.537Z,7.50
2024-03-12T04:00:38.619Z,7.50
2024-03-12T04:03:07.712Z,7.50
2024-03-12T04:05:34.885Z,7.49
2024-03-12T04:08:03.785Z,7.51
2024-03-12T04:10:31.908Z,7.51
2024-03-12T04:12:59.837Z,7.52
2024-03-12T04:15:30.329Z,7.53
2024-03-12T04:17:58.030Z,7.51
2024-03-12T04:20:25.168Z,7.50
2024-03-12T04:22:52.004Z,7.49
2024-03-12T04:25:19.252Z,7.50
2024-03-12T04:27:47.200Z,7.49
2024-03-12T04:30:15.174Z,7.49
2024-03-12T04:32:43.924Z,7.48
2024-03-12T04:35:14.375Z,7.46
2024-03-12T04:37:41.704Z,7.44
2024-03-12T04:40:09.809Z,7.43
2024-03-12T04:42:38.691Z,7.41
2024-03-12T04:45:08.625Z,7.38
2024-03-12T04:47:38.639Z,7.35
2024-03-12T04:50:05.867Z,7.34
2024-03-12T04:52:35.129Z,7.35
2024-03-12T04:55:03.062Z,7.34
2024-03-12T04:57:30.067Z,7.30
2024-03-12T04:59:56.890Z,7.27
2024-03-12T05:02:24.087Z,7.22
2024-03-12T05:04:50.965Z,7.17
2024-03-12T05:07:18.056Z,7.11
2024-03-12T05:09:45.045Z,7.06
2024-03-12T05:12:11.980Z,7.02
2024-03-12T05:14:38.850Z,7.00
2024-03-12T05:17:07.249Z,6.98
2024-03-12T05:19:35.200Z,6.95
2024-03-12T05:22:04.203Z,6.95
2024-03-12T05:24:35.418Z,6.95
2024-03-12T05:27:04.910Z,6.97
2024-03-12T05:29:43.629Z,6.99
2024-03-12T05:32:20.057Z,7.01
2024-03-12T05:34:48.892Z,7.04
2024-03-12T05:37:42.088Z,7.04
2024-03-12T05:40:18.484Z,7.01
2024-03-12T05:43:05.309Z,7.00
2024-03-12T05:45:51.051Z,6.97
2024-03-12T05:48:18.763Z,6.97
2024-03-12T05:50:46.526Z,6.98
2024-03-12T05:53:14.932Z,7.00
2024-03-12T05:55:42.899Z,7.02
2024-03-12T05:58:11.385Z,7.04
2024-03-12T06:00:38.258Z,7.06
2024-03-12T06:03:05.084Z,7.06
2024-03-12T06:05:32.378Z,7.01
2024-03-12T06:08:01.265Z,6.97
2024-03-12T06:10:28.256Z,6.96
2024-03-12T06:12:55.183Z,6.94
2024-03-12T06:15:21.998Z,6.94
2024-03-12T06:17:48.788Z,6.94
2024-03-12T06:20:15.658Z,6.94
2024-03-12T06:22:45.792Z,6.94
2024-03-12T06:25:14.131Z,6.94
2024-03-12T06:27:41.857Z,6.95
2024-03-12T06:30:09.599Z,6.97
2024-03-12T06:32:36.611Z,7.00
2024-03-12T06:35:03.655Z,7.02
2024-03-12T06:41:37.600Z,7.04
2024-03-12T06:44:09.194Z,7.01
2024-03-12T06:46:36.012Z,7.04
2024-03-12T06:49:02.974Z,7.08
2024-03-12T06:51:33.415Z,7.10
2024-03-12T06:54:00.631Z,7.13
2024-03-12T07:00:56.916Z,7.15
2024-03-12T07:03:25.473Z,7.18
2024-03-12T07:05:54.041Z,7.25
2024-03-12T07:08:27.254Z,7.34
2024-03-12T07:10:56.404Z,7.46
2024-03-12T07:13:24.999Z,7.59
2024-03-12T07:15:54.542Z,7.72
2024-03-12T07:22:46.411Z,8.13
2024-03-12T07:25:14.662Z,8.30
2024-03-12T07:27:42.039Z,8.48
2024-03-12T07:30:11.737Z,8.68
2024-03-12T07:32:40.479Z,8.85
2024-03-12T07:35:08.352Z,9.03
2024-03-12T07:37:41.377Z,9.18
2024-03-12T07:40:17.525Z,9.30
2024-03-12T07:42:45.915Z,9.45
2024-03-12T07:45:16.285Z,9.58
2024-03-12T07:47:43.964Z,9.73
2024-03-12T07:50:12.789Z,9.87
2024-03-12T07:52:40.485Z,10.02
2024-03-12T07:55:07.743Z,10.13
2024-03-12T07:57:36.688Z,10.22
2024-03-12T08:00:13.496Z,10.36
2024-03-12T08:02:40.852Z,10.49
2024-03-12T08:05:07.800Z,10.62
2024-03-12T08:07:36.179Z,10.74
2024-03-12T08:10:03.192Z,10.87
2024-03-12T08:12:30.053Z,10.98
2024-03-12T08:15:00.055Z,11.07
2024-03-12T08:17:27.864Z,11.16
2024-03-12T08:19:54.741Z,11.25
2024-03-12T08:22:23.638Z,11.33
2024-03-12T08:24:51.645Z,11.39
2024-03-12T08:27:21.596Z,11.45
2024-03-12T08:29:48.574Z,11.51
2024-03-12T08:32:15.385Z,11.59
2024-03-12T08:34:43.443Z,11.67
2024-03-12T08:37:13.456Z,11.74
2024-03-12T08:39:40.886Z,11.81
2024-03-12T08:42:10.983Z,11.90
2024-03-12T08:44:38.789Z,12.02
2024-03-12T08:47:06.090Z,12.14
2024-03-12T08:49:34.744Z,12.28
2024-03-12T08:52:01.844Z,12.39
2024-03-12T08:54:29.137Z,12.48
2024-03-12T08:56:56.307Z,12.57
2024-03-12T08:59:23.703Z,12.65
2024-03-12T09:01:50.703Z,12.75
2024-03-12T09:04:18.488Z,12.86
2024-03-12T09:06:45.558Z,12.96
2024-03-12T09:09:17.386Z,13.01
2024-03-12T09:11:44.459Z,13.10
2024-03-12T09:14:11.920Z,13.19
2024-03-12T09:16:40.738Z,13.28
2024-03-12T09:19:08.122Z,13.37
2024-03-12T09:21:35.584Z,13.45
2024-03-12T09:24:03.021Z,13.55
2024-03-12T09:26:30.770Z,13.65
2024-03-12T09:29:00.878Z,13.74
2024-03-12T09:31:28.850Z,13.83
2024-03-12T09:33:56.735Z,13.89
2024-03-12T09:36:25.905Z,13.94
2024-03-12T09:38:55.103Z,14.00
2024-03-12T09:41:23.638Z,14.08
2024-03-12T09:43:52.589Z,14.16
2024-03-12T09:46:21.381Z,14.22
2024-03-12T09:48:51.336Z,14.26
2024-03-12T09:51:18.575Z,14.32
2024-03-12T09:53:48.042Z,14.40
2024-03-12T09:56:18.281Z,14.42
2024-03-12T09:58:49.285Z,14.46
2024-03-12T10:01:16.506Z,14.52
2024-03-12T10:03:43.564Z,14.59
2024-03-12T10:06:11.260Z,14.65
2024-03-12T10:08:38.144Z,14.71
2024-03-12T10:11:10.230Z,14.75
2024-03-12T10:13:40.343Z,14.81
2024-03-12T10:16:09.024Z,14.87
2024-03-12T10:18:38.443Z,14.93
2024-03-12T10:21:08.167Z,15.01
2024-03-12T10:23:41.509Z,15.11
2024-03-12T10:26:11.222Z,15.19
2024-03-12T10:28:39.772Z,15.25
2024-03-12T10:31:13.432Z,15.29
2024-03-12T10:33:44.248Z,15.34
2024-03-12T10:36:12.698Z,15.38
2024-03-12T10:38:41.628Z,15.45
2024-03-12T10:41:22.312Z,15.47
2024-03-12T10:43:51.861Z,15.52
2024-03-12T10:46:20.924Z,15.59
2024-03-12T10:53:14.299Z,15.77
2024-03-12T10:59:57.004Z,15.88
2024-03-12T11:06:49.236Z,15.98
2024-03-12T11:09:23.262Z,16.07
2024-03-12T11:11:53.735Z,16.20
2024-03-12T11:14:21.853Z,16.34
2024-03-12T11:16:49.522Z,16.42
2024-03-12T11:19:26.309Z,16.49
2024-03-12T11:21:55.286Z,16.53
2024-03-12T11:24:31.083Z,16.60
2024-03-12T11:27:01.885Z,16.70
2024-03-12T11:30:09.996Z,16.81
2024-03-12T11:32:44.006Z,16.89
2024-03-12T11:35:19.838Z,16.93
2024-03-12T11:38:10.351Z,16.99
2024-03-12T11:40:48.570Z,17.07
2024-03-12T11:43:35.772Z,17.12
2024-03-12T11:46:02.765Z,17.20
2024-03-12T11:48:38.092Z,17.26
2024-03-12T11:51:06.053Z,17.29
2024-03-12T11:53:36.831Z,17.34
2024-03-12T11:56:06.363Z,17.42
2024-03-12T11:58:42.287Z,17.48
2024-03-12T12:01:11.758Z,17.52
2024-03-12T12:03:38.878Z,17.52
2024-03-12T12:06:07.703Z,17.55
2024-03-12T12:08:42.775Z,17.57
2024-03-12T12:11:18.093Z,17.54
2024-03-12T12:13:48.540Z,17.50
2024-03-12T12:16:17.716Z,17.54
2024-03-12T12:18:47.251Z,17.57
2024-03-12T12:21:16.785Z,17.59
2024-03-12T12:23:50.565Z,17.61
2024-03-12T12:26:22.515Z,17.67
2024-03-12T12:28:55.762Z,17.76
2024-03-12T12:31:29.302Z,17.82
2024-03-12T12:34:02.825Z,17.89
2024-03-12T12:36:34.289Z,17.94
2024-03-12T12:39:05.468Z,17.98
2024-03-12T12:41:44.526Z,17.99
2024-03-12T12:44:22.400Z,18.02
2024-03-12T12:46:50.232Z,18.03
2024-03-12T12:49:18.472Z,18.04
2024-03-12T12:51:47.963Z,18.04
2024-03-12T12:54:16.897Z,18.03
2024-03-12T12:56:47.434Z,18.01
2024-03-12T12:59:16.570Z,18.01
2024-03-12T13:01:44.109Z,18.01
2024-03-12T13:04:25.075Z,17.99
2024-03-12T13:06:55.445Z,17.99
2024-03-12T13:09:33.921Z,17.99
2024-03-12T13:12:02.210Z,17.99
2024-03-12T13:14:29.838Z,17.99
2024-03-12T13:16:56.826Z,17.99
2024-03-12T13:19:24.209Z,18.03
2024-03-12T13:21:51.732Z,18.05
2024-03-12T13:24:22.367Z,18.07
2024-03-12T13:26:49.991Z,18.11
2024-03-12T13:29:17.095Z,18.15
2024-03-12T13:31:44.552Z,18.19
2024-03-12T13:34:11.623Z,18.23
2024-03-12T13:36:38.581Z,18.25
2024-03-12T13:39:07.544Z,18.27
2024-03-12T13:45:58.917Z,18.26
2024-03-12T13:48:28.585Z,18.27
2024-03-12T13:51:01.016Z,18.29
2024-03-12T13:53:29.145Z,18.29
2024-03-12T13:56:00.239Z,18.30
2024-03-12T13:58:27.488Z,18.29
2024-03-12T14:00:58.174Z,18.27
2024-03-12T14:03:27.172Z,18.24
2024-03-12T14:05:56.335Z,18.22
2024-03-12T14:08:28.786Z,18.21
2024-03-12T14:10:58.086Z,18.20
2024-03-12T14:17:45.791Z,18.16
2024-03-12T14:20:17.205Z,18.15
2024-03-12T14:22:47.440Z,18.13
2024-03-12T14:29:33.945Z,18.08
2024-03-12T14:32:01.598Z,18.08
2024-03-12T14:34:29.882Z,18.07
2024-03-12T14:36:56.910Z,18.06
2024-03-12T14:39:24.426Z,18.04
2024-03-12T14:41:52.295Z,18.02
2024-03-12T14:48:38.729Z,17.98
2024-03-12T14:51:07.334Z,17.97
2024-03-12T14:57:54.738Z,17.95
2024-03-12T15:00:22.285Z,17.93
2024-03-12T15:02:49.149Z,17.90
2024-03-12T15:05:16.202Z,17.87
2024-03-12T15:07:47.348Z,17.84
2024-03-12T15:14:40.829Z,17.76
2024-03-12T15:17:12.550Z,17.74
2024-03-12T15:19:39.870Z,17.72
2024-03-12T15:22:07.212Z,17.71
2024-03-12T15:24:36.146Z,17.71
2024-03-12T15:27:05.097Z,17.70
2024-03-12T15:33:53.345Z,17.63
2024-03-12T15:36:22.135Z,17.60
2024-03-12T15:38:49.682Z,17.56
2024-03-12T15:41:17.224Z,17.53
2024-03-12T15:43:45.867Z,17.50
2024-03-12T15:46:20.406Z,17.48
2024-03-12T15:48:47.460Z,17.45
2024-03-12T15:51:14.931Z,17.40
2024-03-12T15:53:43.743Z,17.36
2024-03-12T15:56:14.284Z,17.31
2024-03-12T15:58:42.144Z,17.28
2024-03-12T16:01:09.116Z,17.24
2024-03-12T16:03:39.982Z,17.20
2024-03-12T16:06:08.086Z,17.16
2024-03-12T16:08:34.917Z,17.10
2024-03-12T16:11:04.128Z,17.06
2024-03-12T16:13:31.153Z,17.01
2024-03-12T16:15:58.089Z,16.97
2024-03-12T16:18:26.169Z,16.93
2024-03-12T16:20:53.344Z,16.88
2024-03-12T16:23:20.246Z,16.84
2024-03-12T16:25:47.357Z,16.79
2024-03-12T16:28:14.174Z,16.74
2024-03-12T16:30:43.441Z,16.69
2024-03-12T16:33:10.262Z,16.63
2024-03-12T16:35:37.156Z,16.58
2024-03-12T16:38:04.430Z,16.53
2024-03-12T16:40:31.800Z,16.46
2024-03-12T16:42:58.861Z,16.37
2024-03-12T16:45:25.788Z,16.30
2024-03-12T16:47:52.784Z,16.22
2024-03-12T16:50:19.909Z,16.15
2024-03-12T16:52:47.712Z,16.08
2024-03-12T16:55:15.634Z,16.02
2024-03-12T16:57:43.012Z,15.95
2024-03-12T17:00:15.571Z,15.90
2024-03-12T17:02:43.692Z,15.85
2024-03-12T17:09:31.142Z,15.71
2024-03-12T17:11:58.314Z,15.63
2024-03-12T17:14:30.741Z,15.53
2024-03-12T17:17:07.689Z,15.43
2024-03-12T17:19:36.924Z,15.32
2024-03-12T17:22:07.346Z,15.21
2024-03-12T17:24:35.825Z,15.10
2024-03-12T17:27:10.417Z,14.99
2024-03-12T17:29:38.408Z,14.88
2024-03-12T17:32:11.904Z,14.76
2024-03-12T17:34:40.156Z,14.64
2024-03-12T17:37:17.741Z,14.54
2024-03-12T17:39:47.973Z,14.44
2024-03-12T17:42:21.772Z,14.36
2024-03-12T17:44:49.560Z,14.26
2024-03-12T17:47:22.296Z,14.17
2024-03-12T17:49:51.238Z,14.08
2024-03-12T17:52:18.288Z,13.99
2024-03-12T17:54:47.226Z,13.90
2024-03-12T17:57:17.870Z,13.81
2024-03-12T17:59:45.973Z,13.72
2024-03-12T18:02:15.607Z,13.65
2024-03-12T18:09:01.434Z,13.43
2024-03-12T18:15:50.672Z,13.23
2024-03-12T18:18:17.613Z,13.17
2024-03-12T18:25:05.025Z,13.04
2024-03-12T18:31:39.181Z,12.89
2024-03-12T18:34:11.014Z,12.85
2024-03-12T18:36:38.013Z,12.81
2024-03-12T18:39:05.265Z,12.79
2024-03-12T18:41:32.091Z,12.76
2024-03-12T18:48:20.652Z,12.71
2024-03-12T18:50:50.413Z,12.69
2024-03-12T18:57:42.545Z,12.63
2024-03-12T19:00:15.710Z,12.63
2024-03-12T19:07:04.616Z,12.61
2024-03-12T19:09:32.760Z,12.61
2024-03-12T19:16:23.603Z,12.63
2024-03-12T19:18:51.241Z,12.64
2024-03-12T19:21:20.972Z,12.65
2024-03-12T19:23:52.782Z,12.64
2024-03-12T19:26:20.320Z,12.63
2024-03-12T19:28:47.387Z,12.61
2024-03-12T19:31:15.799Z,12.58
2024-03-12T19:33:47.681Z,12.55
2024-03-12T19:36:22.026Z,12.55
2024-03-12T19:38:49.912Z,12.56
2024-03-12T19:41:18.886Z,12.57
2024-03-12T19:43:47.325Z,12.57
2024-03-12T19:46:16.451Z,12.57
2024-03-12T19:48:44.500Z,12.55
2024-03-12T19:51:14.317Z,12.54
2024-03-12T19:53:41.171Z,12.52
2024-03-12T19:56:13.397Z,12.47
2024-03-12T19:58:40.470Z,12.44
2024-03-12T20:01:07.849Z,12.44
2024-03-12T20:03:35.039Z,12.43
2024-03-12T20:06:02.035Z,12.42
2024-03-12T20:08:30.238Z,12.40
2024-03-12T20:10:57.375Z,12.39
2024-03-12T20:13:24.924Z,12.38
2024-03-12T20:15:53.407Z,12.39
2024-03-12T20:18:20.622Z,12.40
2024-03-12T20:20:47.664Z,12.40
2024-03-12T20:23:14.576Z,12.39
2024-03-12T20:25:41.710Z,12.39
2024-03-12T20:28:13.417Z,12.40
2024-03-12T20:30:41.080Z,12.39
2024-03-12T20:33:13.200Z,12.37
2024-03-12T20:35:40.322Z,12.35
2024-03-12T20:38:09.816Z,12.34
2024-03-12T20:40:37.046Z,12.32
2024-03-12T20:43:07.160Z,12.31
2024-03-12T20:45:35.728Z,12.29
2024-03-12T20:48:04.333Z,12.27
2024-03-12T20:54:55.561Z,12.18
2024-03-12T20:57:22.398Z,12.16
2024-03-12T20:59:49.314Z,12.14
2024-03-12T21:02:16.219Z,12.12
2024-03-12T21:04:44.457Z,12.11
2024-03-12T21:07:12.268Z,12.08
2024-03-12T21:09:40.157Z,12.06
2024-03-12T21:12:07.060Z,12.04
2024-03-12T21:14:34.026Z,12.01
2024-03-12T21:17:12.084Z,11.98
2024-03-12T21:19:38.849Z,11.95
2024-03-12T21:22:09.569Z,11.93
2024-03-12T21:24:37.723Z,11.91
2024-03-12T21:27:04.769Z,11.90
2024-03-12T21:29:34.261Z,11.88
2024-03-12T21:32:01.157Z,11.87
2024-03-12T21:34:28.107Z,11.84
2024-03-12T21:36:54.887Z,11.83
2024-03-12T21:39:23.532Z,11.84
2024-03-12T21:41:50.418Z,11.84
2024-03-12T21:44:20.166Z,11.83
2024-03-12T21:46:50.747Z,11.83
2024-03-12T21:49:17.682Z,11.83
2024-03-12T21:51:44.608Z,11.85
2024-03-12T21:58:20.409Z,11.84
2024-03-12T22:00:47.972Z,11.82
2024-03-12T22:03:16.202Z,11.78
2024-03-12T22:05:43.020Z,11.73
2024-03-12T22:08:09.845Z,11.67
2024-03-12T22:10:37.054Z,11.63
2024-03-12T22:13:04.645Z,11.61
2024-03-12T22:15:31.584Z,11.60
2024-03-12T22:17:58.448Z,11.60
2024-03-12T22:20:25.677Z,11.60
2024-03-12T22:22:55.272Z,11.58
2024-03-12T22:25:23.822Z,11.57
2024-03-12T22:27:51.014Z,11.56
2024-03-12T22:30:18.791Z,11.56
2024-03-12T22:32:46.678Z,11.54
2024-03-12T22:35:13.730Z,11.50
2024-03-12T22:37:43.499Z,11.47
2024-03-12T22:40:13.726Z,11.45
2024-03-12T22:42:41.408Z,11.41
2024-03-12T22:45:10.158Z,11.38
2024-03-12T22:47:37.222Z,11.34
2024-03-12T22:50:04.377Z,11.31
2024-03-12T22:52:32.032Z,11.28
2024-03-12T22:54:58.952Z,11.25
2024-03-12T22:57:27.910Z,11.23
2024-03-12T22:59:56.041Z,11.18
2024-03-12T23:02:23.526Z,11.14
2024-03-12T23:04:52.237Z,11.11
2024-03-12T23:07:20.855Z,11.09
2024-03-12T23:09:50.027Z,11.06
2024-03-12T23:12:18.473Z,11.03
2024-03-12T23:14:45.291Z,11.03
2024-03-12T23:17:12.093Z,11.07
2024-03-12T23:19:42.136Z,11.10
2024-03-12T23:22:10.783Z,11.12
2024-03-12T23:24:39.383Z,11.11
2024-03-12T23:27:06.736Z,11.11
2024-03-12T23:29:34.784Z,11.10
2024-03-12T23:32:01.629Z,11.09
2024-03-12T23:34:28.585Z,11.09
2024-03-12T23:36:55.655Z,11.09
2024-03-12T23:39:25.187Z,11.11
2024-03-12T23:41:53.779Z,11.08
2024-03-12T23:44:20.833Z,11.03
2024-03-12T23:46:47.716Z,11.01
2024-03-12T23:49:14.621Z,11.01
2024-03-12T23:51:41.632Z,11.02
2024-03-12T23:54:08.512Z,11.02
2024-03-12T23:56:35.614Z,11.02
2024-03-12T23:59:02.457Z,11.02
